createdAt,value
2018-12-01T00:00:16.497Z,20.92
2018-12-01T00:00:47.614Z,21.25
2018-12-01T00:01:18.729Z,19.77
2018-12-01T00:01:50.266Z,19.98
2018-12-01T00:02:21.378Z,20.48
2018-12-01T00:02:52.497Z,19.60
2018-12-01T00:03:23.652Z,20.17
2018-12-01T00:03:54.800Z,20.70
2018-12-01T00:04:25.928Z,20.60
2018-12-01T00:04:57.047Z,20.32
2018-12-01T00:05:28.171Z,21.15
2018-12-01T00:05:59.292Z,20.92
2018-12-01T00:06:30.412Z,20.60
2018-12-01T00:07:01.539Z,19.87
2018-12-01T00:07:32.667Z,21.40
2018-12-01T00:08:03.806Z,20.65
2018-12-01T00:08:34.957Z,21.48
2018-12-01T00:09:06.060Z,21.10
2018-12-01T00:09:37.171Z,21.30
2018-12-01T00:10:08.290Z,21.07
2018-12-01T00:10:39.457Z,20.00
2018-12-01T00:11:10.582Z,20.15
2018-12-01T00:11:41.708Z,20.00
2018-12-01T00:12:12.817Z,19.67
2018-12-01T00:12:43.949Z,20.32
2018-12-01T00:13:15.070Z,20.12
2018-12-01T00:13:46.234Z,19.92
2018-12-01T00:14:17.361Z,20.52
2018-12-01T00:14:48.513Z,19.60
2018-12-01T00:15:19.627Z,19.90
2018-12-01T00:15:50.747Z,19.87
2018-12-01T00:16:21.860Z,19.77
2018-12-01T00:16:52.986Z,20.65
2018-12-01T00:17:24.105Z,20.77
2018-12-01T00:17:55.214Z,20.17
2018-12-01T00:18:26.327Z,20.02
2018-12-01T00:18:57.481Z,19.70
2018-12-01T00:19:28.604Z,20.25
2018-12-01T00:19:59.721Z,21.40
2018-12-01T00:20:30.843Z,20.57
2018-12-01T00:21:01.958Z,20.65
2018-12-01T00:21:33.125Z,21.60
2018-12-01T00:22:04.259Z,20.75
2018-12-01T00:22:35.370Z,21.02
2018-12-01T00:23:06.495Z,20.97
2018-12-01T00:23:37.617Z,21.00
2018-12-01T00:24:08.728Z,21.62
2018-12-01T00:24:39.859Z,21.90
2018-12-01T00:25:10.970Z,20.65
2018-12-01T00:25:42.097Z,21.57
2018-12-01T00:26:13.221Z,21.45
2018-12-01T00:26:44.363Z,21.75
2018-12-01T00:27:15.476Z,20.88
2018-12-01T00:27:46.592Z,19.98
2018-12-01T00:28:17.705Z,21.65
2018-12-01T00:28:48.821Z,20.55
2018-12-01T00:29:19.972Z,20.88
2018-12-01T00:29:51.094Z,21.73
2018-12-01T00:30:22.213Z,21.25
2018-12-01T00:30:53.332Z,21.62
2018-12-01T00:31:24.454Z,20.30
2018-12-01T00:31:55.617Z,21.07
2018-12-01T00:32:26.757Z,19.77
2018-12-01T00:32:57.880Z,20.65
2018-12-01T00:33:29.033Z,20.77
2018-12-01T00:34:00.146Z,19.87
2018-12-01T00:34:31.260Z,19.90
2018-12-01T00:35:02.370Z,20.20
2018-12-01T00:35:33.486Z,20.08
2018-12-01T00:36:04.605Z,19.92
2018-12-01T00:36:35.715Z,20.10
2018-12-01T00:37:06.866Z,19.90
2018-12-01T00:37:37.977Z,20.90
2018-12-01T00:38:09.133Z,19.62
2018-12-01T00:38:40.256Z,19.95
2018-12-01T00:39:11.379Z,20.85
2018-12-01T00:39:42.500Z,20.68
2018-12-01T00:40:13.626Z,20.00
2018-12-01T00:40:44.737Z,20.05
2018-12-01T00:41:15.848Z,21.23
2018-12-01T00:41:46.965Z,20.97
2018-12-01T00:42:18.114Z,20.10
2018-12-01T00:42:49.232Z,20.65
2018-12-01T00:43:20.355Z,20.60
2018-12-01T00:43:51.465Z,19.98
2018-12-01T00:44:22.571Z,18.77
2018-12-01T00:44:53.694Z,19.85
2018-12-01T00:45:24.823Z,18.85
2018-12-01T00:45:55.928Z,19.25
2018-12-01T00:46:27.042Z,19.25
2018-12-01T00:46:58.165Z,20.15
2018-12-01T00:47:29.311Z,19.42
2018-12-01T00:48:00.437Z,20.35
2018-12-01T00:48:31.556Z,19.92
2018-12-01T00:49:02.711Z,19.80
2018-12-01T00:49:33.831Z,19.52
2018-12-01T00:50:04.978Z,20.50
2018-12-01T00:50:36.098Z,21.00
2018-12-01T00:51:07.258Z,20.57
2018-12-01T00:51:38.364Z,20.60
2018-12-01T00:52:09.528Z,21.00
2018-12-01T00:52:40.645Z,22.17
2018-12-01T00:53:11.749Z,20.62
2018-12-01T00:53:42.893Z,21.35
2018-12-01T00:54:14.000Z,20.20
2018-12-01T00:54:45.120Z,19.00
2018-12-01T00:55:16.269Z,20.68
2018-12-01T00:55:47.386Z,19.57
2018-12-01T00:56:18.502Z,20.40
2018-12-01T00:56:49.631Z,20.40
2018-12-01T00:57:20.753Z,21.85
2018-12-01T00:57:51.889Z,21.05
2018-12-01T00:58:22.999Z,21.15
2018-12-01T00:58:54.160Z,20.52
2018-12-01T00:59:25.274Z,20.92
2018-12-01T00:59:56.383Z,20.32
2018-12-01T01:00:27.519Z,20.45
2018-12-01T01:00:58.646Z,21.10
2018-12-01T01:01:29.773Z,21.57
2018-12-01T01:02:00.893Z,20.00
2018-12-01T01:02:32.017Z,20.10
2018-12-01T01:03:03.168Z,20.35
2018-12-01T01:03:34.287Z,20.82
2018-12-01T01:04:05.403Z,20.57
2018-12-01T01:04:36.520Z,20.97
2018-12-01T01:05:07.634Z,19.90
2018-12-01T01:05:38.749Z,20.23
2018-12-01T01:06:09.864Z,22.02
2018-12-01T01:06:41.012Z,21.00
2018-12-01T01:07:12.159Z,21.02
2018-12-01T01:07:43.276Z,21.60
2018-12-01T01:08:14.391Z,21.48
2018-12-01T01:08:45.515Z,21.60
2018-12-01T01:09:16.632Z,21.30
2018-12-01T01:09:47.787Z,21.80
2018-12-01T01:10:18.908Z,22.05
2018-12-01T01:10:50.037Z,22.30
2018-12-01T01:11:21.164Z,22.15
2018-12-01T01:11:52.277Z,21.55
2018-12-01T01:12:23.394Z,20.95
2018-12-01T01:12:54.505Z,22.32
2018-12-01T01:13:25.621Z,21.68
2018-12-01T01:13:56.765Z,22.13
2018-12-01T01:14:27.888Z,22.37
2018-12-01T01:14:59.044Z,21.97
2018-12-01T01:15:30.161Z,20.95
2018-12-01T01:16:01.270Z,22.00
2018-12-01T01:16:37.670Z,22.45
2018-12-01T01:17:08.848Z,21.95
2018-12-01T01:17:39.970Z,22.45
2018-12-01T01:18:11.082Z,21.70
2018-12-01T01:18:42.233Z,23.07
2018-12-01T01:19:13.392Z,22.10
2018-12-01T01:19:44.513Z,22.40
2018-12-01T01:20:15.616Z,22.40
2018-12-01T01:20:46.735Z,23.10
2018-12-01T01:21:17.856Z,23.25
2018-12-01T01:21:48.963Z,22.82
2018-12-01T01:22:20.101Z,22.48
2018-12-01T01:22:51.265Z,22.65
2018-12-01T01:23:22.381Z,24.37
2018-12-01T01:23:53.496Z,22.58
2018-12-01T01:24:24.608Z,22.60
2018-12-01T01:24:55.720Z,21.87
2018-12-01T01:25:26.829Z,23.05
2018-12-01T01:25:57.962Z,21.93
2018-12-01T01:26:29.071Z,21.80
2018-12-01T01:27:00.172Z,22.87
2018-12-01T01:27:31.294Z,22.70
2018-12-01T01:28:02.437Z,22.77
2018-12-01T01:28:33.549Z,23.73
2018-12-01T01:29:04.663Z,23.45
2018-12-01T01:29:35.775Z,22.77
2018-12-01T01:30:06.931Z,22.98
2018-12-01T01:30:38.049Z,23.50
2018-12-01T01:31:09.207Z,22.98
2018-12-01T01:31:40.303Z,21.85
2018-12-01T01:32:11.418Z,23.57
2018-12-01T01:32:42.528Z,23.52
2018-12-01T01:33:13.664Z,23.07
2018-12-01T01:33:44.782Z,23.47
2018-12-01T01:34:15.892Z,23.12
2018-12-01T01:34:47.054Z,24.67
2018-12-01T01:35:18.169Z,22.65
2018-12-01T01:35:49.283Z,23.12
2018-12-01T01:36:20.391Z,21.80
2018-12-01T01:36:51.504Z,23.15
2018-12-01T01:37:22.622Z,21.73
2018-12-01T01:37:53.789Z,21.97
2018-12-01T01:38:24.908Z,22.70
2018-12-01T01:38:56.016Z,23.15
2018-12-01T01:39:27.127Z,22.30
2018-12-01T01:39:58.246Z,22.82
2018-12-01T01:40:29.377Z,21.77
2018-12-01T01:41:00.506Z,22.77
2018-12-01T01:41:31.618Z,22.30
2018-12-01T01:42:02.740Z,23.30
2018-12-01T01:42:33.852Z,24.12
2018-12-01T01:43:05.003Z,23.83
2018-12-01T01:43:36.148Z,22.42
2018-12-01T01:44:07.294Z,23.47
2018-12-01T01:44:38.415Z,24.70
2018-12-01T01:45:09.531Z,23.70
2018-12-01T01:45:40.651Z,24.47
2018-12-01T01:46:11.784Z,23.35
2018-12-01T01:46:42.896Z,23.07
2018-12-01T01:47:14.019Z,22.80
2018-12-01T01:47:45.151Z,23.65
2018-12-01T01:48:16.302Z,22.85
2018-12-01T01:48:47.412Z,23.92
2018-12-01T01:49:18.525Z,23.75
2018-12-01T01:49:49.671Z,24.55
2018-12-01T01:50:20.797Z,23.27
2018-12-01T01:50:51.927Z,22.95
2018-12-01T01:51:23.037Z,24.15
2018-12-01T01:51:54.161Z,23.75
2018-12-01T01:52:25.292Z,24.77
2018-12-01T01:52:56.406Z,25.65
2018-12-01T01:53:27.517Z,25.82
2018-12-01T01:53:58.683Z,24.20
2018-12-01T01:54:29.789Z,24.55
2018-12-01T01:55:00.968Z,26.27
2018-12-01T01:55:32.100Z,25.68
2018-12-01T01:56:03.230Z,25.43
2018-12-01T01:56:34.353Z,24.12
2018-12-01T01:57:05.469Z,22.40
2018-12-01T01:57:36.593Z,21.12
2018-12-01T01:58:07.751Z,21.35
2018-12-01T01:58:38.893Z,19.37
2018-12-01T01:59:10.034Z,17.75
2018-12-01T01:59:41.158Z,19.75
2018-12-01T02:00:12.316Z,19.00
2018-12-01T02:00:43.424Z,18.92
2018-12-01T02:01:14.527Z,20.37
2018-12-01T02:01:45.654Z,19.27
2018-12-01T02:02:16.774Z,19.55
2018-12-01T02:02:47.894Z,20.70
2018-12-01T02:03:19.017Z,21.17
2018-12-01T02:03:50.138Z,20.62
2018-12-01T02:04:21.252Z,20.27
2018-12-01T02:04:52.414Z,20.70
2018-12-01T02:05:23.536Z,21.07
2018-12-01T02:05:54.657Z,21.17
2018-12-01T02:06:25.765Z,21.17
2018-12-01T02:06:56.878Z,21.37
2018-12-01T02:07:27.988Z,20.32
2018-12-01T02:07:59.117Z,20.15
2018-12-01T02:08:30.240Z,19.82
2018-12-01T02:09:01.375Z,20.37
2018-12-01T02:09:32.506Z,19.65
2018-12-01T02:10:03.670Z,19.65
2018-12-01T02:10:34.783Z,17.35
2018-12-01T02:11:05.900Z,18.00
2018-12-01T02:11:37.025Z,17.32
2018-12-01T02:12:08.151Z,16.90
2018-12-01T02:12:39.265Z,15.75
2018-12-01T02:13:10.389Z,17.23
2018-12-01T02:13:41.512Z,16.87
2018-12-01T02:14:12.646Z,15.75
2018-12-01T02:14:43.797Z,15.38
2018-12-01T02:15:14.914Z,16.20
2018-12-01T02:15:46.059Z,15.63
2018-12-01T02:16:17.191Z,15.00
2018-12-01T02:16:48.305Z,15.88
2018-12-01T02:17:19.425Z,15.13
2018-12-01T02:17:50.542Z,14.98
2018-12-01T02:18:21.691Z,15.20
2018-12-01T02:18:52.849Z,14.78
2018-12-01T02:19:23.997Z,15.83
2018-12-01T02:19:55.126Z,15.18
2018-12-01T02:20:26.289Z,16.32
2018-12-01T02:20:57.409Z,16.23
2018-12-01T02:21:28.528Z,15.80
2018-12-01T02:21:59.647Z,16.25
2018-12-01T02:22:30.778Z,15.38
2018-12-01T02:23:01.888Z,15.08
2018-12-01T02:23:33.011Z,15.45
2018-12-01T02:24:04.168Z,14.63
2018-12-01T02:24:35.280Z,15.32
2018-12-01T02:25:06.433Z,15.05
2018-12-01T02:25:37.558Z,14.65
2018-12-01T02:26:08.672Z,15.10
2018-12-01T02:26:39.842Z,14.90
2018-12-01T02:27:10.986Z,15.53
2018-12-01T02:27:42.124Z,15.78
2018-12-01T02:28:13.244Z,15.88
2018-12-01T02:28:44.382Z,15.05
2018-12-01T02:29:15.538Z,15.48
2018-12-01T02:29:46.645Z,15.20
2018-12-01T02:30:17.787Z,14.33
2018-12-01T02:30:48.909Z,15.32
2018-12-01T02:31:20.039Z,15.98
2018-12-01T02:31:51.152Z,15.75
2018-12-01T02:32:22.270Z,15.43
2018-12-01T02:32:53.396Z,15.30
2018-12-01T02:33:24.521Z,16.23
2018-12-01T02:33:56.692Z,15.78
2018-12-01T02:34:27.812Z,15.60
2018-12-01T02:34:58.933Z,16.95
2018-12-01T02:35:30.056Z,17.12
2018-12-01T02:36:01.179Z,17.10
2018-12-01T02:36:32.304Z,16.87
2018-12-01T02:37:03.465Z,16.32
2018-12-01T02:37:34.606Z,17.73
2018-12-01T02:38:05.798Z,17.37
2018-12-01T02:38:36.945Z,18.37
2018-12-01T02:39:08.108Z,17.75
2018-12-01T02:39:39.331Z,18.48
2018-12-01T02:40:10.459Z,17.42
2018-12-01T02:40:41.602Z,18.23
2018-12-01T02:41:12.753Z,18.98
2018-12-01T02:41:43.899Z,19.12
2018-12-01T02:42:15.030Z,19.92
2018-12-01T02:42:46.207Z,19.52
2018-12-01T02:43:17.334Z,17.10
2018-12-01T02:43:48.440Z,17.95
2018-12-01T02:44:19.592Z,18.52
2018-12-01T02:44:50.740Z,17.20
2018-12-01T02:45:21.861Z,17.75
2018-12-01T02:45:53.006Z,17.92
2018-12-01T02:46:24.137Z,18.30
2018-12-01T02:46:55.255Z,18.00
2018-12-01T02:47:26.434Z,18.60
2018-12-01T02:47:57.559Z,18.10
2018-12-01T02:48:28.672Z,16.00
2018-12-01T02:48:59.779Z,16.85
2018-12-01T02:49:30.956Z,17.70
2018-12-01T02:50:02.084Z,18.40
2018-12-01T02:50:33.222Z,17.70
2018-12-01T02:51:04.345Z,17.50
2018-12-01T02:51:35.458Z,16.20
2018-12-01T02:52:07.792Z,16.80
2018-12-01T02:52:38.929Z,15.95
2018-12-01T02:53:10.089Z,14.43
2018-12-01T02:53:41.203Z,15.53
2018-12-01T02:54:12.330Z,16.23
2018-12-01T02:54:43.470Z,15.50
2018-12-01T02:55:14.593Z,15.43
2018-12-01T02:55:45.753Z,15.80
2018-12-01T02:56:16.872Z,16.82
2018-12-01T02:56:47.996Z,16.07
2018-12-01T02:57:19.164Z,16.32
2018-12-01T02:57:50.557Z,17.32
2018-12-01T02:58:21.681Z,17.40
2018-12-01T02:58:52.833Z,16.02
2018-12-01T02:59:23.997Z,14.28
2018-12-01T02:59:55.122Z,15.10
2018-12-01T03:00:26.236Z,15.30
2018-12-01T03:00:57.421Z,14.47
2018-12-01T03:01:28.555Z,14.85
2018-12-01T03:01:59.685Z,15.43
2018-12-01T03:02:30.804Z,15.83
2018-12-01T03:03:01.916Z,15.25
2018-12-01T03:03:33.057Z,14.80
2018-12-01T03:04:04.185Z,15.03
2018-12-01T03:04:35.421Z,16.48
2018-12-01T03:05:06.551Z,15.83
2018-12-01T03:05:37.684Z,15.83
2018-12-01T03:06:08.793Z,15.48
2018-12-01T03:06:39.915Z,15.85
2018-12-01T03:07:11.029Z,15.88
2018-12-01T03:07:42.147Z,15.83
2018-12-01T03:08:13.281Z,16.40
2018-12-01T03:08:44.406Z,16.62
2018-12-01T03:09:15.525Z,16.67
2018-12-01T03:09:46.694Z,16.30
2018-12-01T03:10:17.848Z,15.75
2018-12-01T03:10:48.980Z,16.32
2018-12-01T03:11:20.125Z,16.35
2018-12-01T03:11:51.280Z,16.45
2018-12-01T03:12:22.392Z,15.32
2018-12-01T03:12:53.533Z,16.87
2018-12-01T03:13:24.662Z,15.43
2018-12-01T03:13:55.792Z,16.60
2018-12-01T03:14:26.912Z,14.70
2018-12-01T03:14:58.074Z,15.40
2018-12-01T03:15:29.199Z,15.00
2018-12-01T03:16:00.340Z,15.78
2018-12-01T03:16:31.464Z,16.42
2018-12-01T03:17:02.627Z,16.25
2018-12-01T03:17:33.792Z,14.83
2018-12-01T03:18:04.913Z,15.63
2018-12-01T03:18:36.039Z,16.10
2018-12-01T03:19:07.211Z,16.35
2018-12-01T03:19:38.325Z,15.58
2018-12-01T03:20:09.453Z,15.80
2018-12-01T03:20:40.604Z,15.63
2018-12-01T03:21:11.729Z,16.77
2018-12-01T03:21:42.844Z,17.25
2018-12-01T03:22:13.972Z,16.65
2018-12-01T03:22:45.119Z,16.02
2018-12-01T03:23:16.254Z,16.42
2018-12-01T03:23:48.020Z,15.68
2018-12-01T03:24:19.157Z,16.95
2018-12-01T03:24:50.293Z,16.17
2018-12-01T03:25:21.473Z,16.45
2018-12-01T03:25:52.585Z,16.32
2018-12-01T03:26:23.713Z,16.55
2018-12-01T03:26:54.824Z,16.12
2018-12-01T03:27:25.951Z,16.48
2018-12-01T03:27:57.315Z,16.73
2018-12-01T03:28:28.451Z,15.48
2018-12-01T03:28:59.606Z,16.15
2018-12-01T03:29:30.761Z,15.50
2018-12-01T03:30:01.893Z,15.48
2018-12-01T03:30:33.072Z,15.60
2018-12-01T03:31:04.198Z,14.93
2018-12-01T03:31:35.338Z,15.13
2018-12-01T03:32:06.488Z,15.38
2018-12-01T03:32:37.631Z,15.28
2018-12-01T03:33:08.803Z,15.15
2018-12-01T03:33:39.927Z,14.65
2018-12-01T03:34:11.060Z,15.50
2018-12-01T03:34:42.176Z,15.45
2018-12-01T03:35:13.291Z,15.25
2018-12-01T03:35:44.424Z,15.90
2018-12-01T03:36:15.564Z,15.83
2018-12-01T03:36:46.742Z,16.00
2018-12-01T03:37:17.875Z,15.75
2018-12-01T03:37:49.115Z,15.43
2018-12-01T03:38:20.236Z,15.85
2018-12-01T03:38:51.352Z,15.55
2018-12-01T03:39:22.506Z,15.55
2018-12-01T03:39:53.657Z,16.32
2018-12-01T03:40:24.773Z,16.20
2018-12-01T03:40:55.908Z,16.48
2018-12-01T03:41:27.034Z,16.73
2018-12-01T03:41:58.146Z,15.88
2018-12-01T03:42:29.268Z,16.60
2018-12-01T03:43:00.425Z,16.77
2018-12-01T03:43:31.571Z,16.30
2018-12-01T03:44:02.685Z,16.55
2018-12-01T03:44:33.816Z,16.10
2018-12-01T03:45:04.963Z,16.60
2018-12-01T03:45:36.146Z,16.42
2018-12-01T03:46:07.321Z,16.87
2018-12-01T03:46:38.439Z,17.87
2018-12-01T03:47:09.571Z,16.95
2018-12-01T03:47:40.696Z,16.80
2018-12-01T03:48:11.823Z,16.60
2018-12-01T03:48:42.940Z,15.43
2018-12-01T03:49:14.066Z,16.70
2018-12-01T03:49:45.192Z,16.25
2018-12-01T03:50:16.378Z,15.90
2018-12-01T03:50:47.554Z,16.20
2018-12-01T03:51:18.690Z,16.45
2018-12-01T03:51:49.812Z,16.87
2018-12-01T03:52:20.934Z,15.10
2018-12-01T03:52:52.060Z,15.65
2018-12-01T03:53:23.180Z,15.98
2018-12-01T03:53:54.336Z,16.42
2018-12-01T03:54:25.459Z,16.40
2018-12-01T03:54:56.589Z,14.70
2018-12-01T03:55:27.722Z,15.23
2018-12-01T03:55:58.861Z,16.35
2018-12-01T03:56:29.969Z,15.50
2018-12-01T03:57:01.081Z,14.63
2018-12-01T03:57:32.242Z,15.10
2018-12-01T03:58:03.396Z,15.78
2018-12-01T03:58:34.527Z,16.73
2018-12-01T03:59:05.650Z,16.37
2018-12-01T03:59:36.785Z,16.70
2018-12-01T04:00:07.922Z,17.12
2018-12-01T04:00:39.105Z,18.52
2018-12-01T04:01:10.228Z,18.12
2018-12-01T04:01:41.337Z,19.45
2018-12-01T04:02:12.465Z,22.20
2018-12-01T04:02:43.583Z,18.82
2018-12-01T04:03:14.697Z,17.60
2018-12-01T04:03:45.827Z,17.95
2018-12-01T04:04:16.957Z,19.35
2018-12-01T04:04:48.121Z,20.27
2018-12-01T04:05:19.293Z,19.77
2018-12-01T04:05:50.424Z,19.10
2018-12-01T04:06:21.543Z,18.30
2018-12-01T04:06:52.664Z,19.42
2018-12-01T04:07:23.777Z,20.17
2018-12-01T04:07:54.895Z,18.60
2018-12-01T04:08:26.017Z,20.23
2018-12-01T04:08:57.194Z,22.48
2018-12-01T04:09:28.317Z,22.10
2018-12-01T04:09:59.426Z,25.52
2018-12-01T04:10:30.615Z,23.67
2018-12-01T04:11:01.783Z,22.95
2018-12-01T04:11:32.893Z,21.15
2018-12-01T04:12:04.004Z,22.02
2018-12-01T04:12:35.113Z,22.15
2018-12-01T04:13:06.232Z,22.37
2018-12-01T04:13:37.347Z,22.70
2018-12-01T04:14:08.508Z,21.60
2018-12-01T04:14:39.651Z,22.40
2018-12-01T04:15:10.810Z,20.92
2018-12-01T04:15:42.025Z,21.10
2018-12-01T04:16:13.180Z,21.07
2018-12-01T04:16:44.324Z,22.52
2018-12-01T04:17:15.452Z,22.65
2018-12-01T04:17:46.819Z,20.88
2018-12-01T04:18:17.993Z,19.75
2018-12-01T04:18:49.133Z,19.45
2018-12-01T04:19:20.288Z,19.48
2018-12-01T04:19:51.436Z,18.00
2018-12-01T04:20:22.539Z,19.67
2018-12-01T04:20:53.688Z,20.77
2018-12-01T04:21:24.807Z,19.60
2018-12-01T04:21:55.962Z,18.80
2018-12-01T04:22:27.095Z,18.82
2018-12-01T04:22:58.209Z,21.23
2018-12-01T04:23:29.324Z,21.02
2018-12-01T04:24:00.460Z,17.60
2018-12-01T04:24:31.616Z,18.37
2018-12-01T04:25:02.783Z,17.70
2018-12-01T04:25:33.913Z,18.65
2018-12-01T04:26:05.035Z,17.15
2018-12-01T04:26:36.191Z,16.00
2018-12-01T04:27:07.312Z,16.77
2018-12-01T04:27:38.491Z,15.83
2018-12-01T04:28:09.616Z,16.05
2018-12-01T04:28:40.742Z,15.45
2018-12-01T04:29:11.874Z,16.55
2018-12-01T04:29:42.989Z,15.23
2018-12-01T04:30:14.103Z,15.05
2018-12-01T04:30:45.229Z,17.07
2018-12-01T04:31:16.349Z,17.23
2018-12-01T04:31:47.465Z,18.42
2018-12-01T04:32:18.597Z,17.50
2018-12-01T04:32:49.749Z,16.87
2018-12-01T04:33:20.903Z,16.05
2018-12-01T04:33:52.073Z,17.67
2018-12-01T04:34:23.195Z,16.10
2018-12-01T04:34:54.308Z,18.37
2018-12-01T04:35:25.403Z,18.85
2018-12-01T04:35:56.529Z,18.15
2018-12-01T04:36:27.654Z,18.00
2018-12-01T04:36:58.781Z,19.12
2018-12-01T04:37:29.901Z,19.32
2018-12-01T04:38:01.061Z,20.25
2018-12-01T04:38:32.203Z,19.32
2018-12-01T04:39:03.307Z,17.95
2018-12-01T04:39:34.415Z,17.95
2018-12-01T04:40:05.538Z,18.45
2018-12-01T04:40:36.689Z,18.42
2018-12-01T04:41:07.826Z,22.93
2018-12-01T04:41:38.941Z,22.70
2018-12-01T04:42:10.114Z,22.35
2018-12-01T04:42:41.253Z,22.10
2018-12-01T04:43:12.407Z,19.82
2018-12-01T04:43:43.537Z,20.85
2018-12-01T04:44:14.657Z,20.15
2018-12-01T04:44:45.785Z,20.72
2018-12-01T04:45:16.914Z,21.80
2018-12-01T04:45:48.033Z,24.47
2018-12-01T04:46:19.151Z,24.60
2018-12-01T04:46:50.268Z,25.45
2018-12-01T04:47:21.381Z,26.15
2018-12-01T04:47:52.642Z,24.07
2018-12-01T04:48:23.802Z,24.15
2018-12-01T04:48:54.965Z,24.25
2018-12-01T04:49:26.093Z,24.23
2018-12-01T04:49:57.229Z,25.48
2018-12-01T04:50:28.368Z,26.15
2018-12-01T04:50:59.493Z,25.43
2018-12-01T04:51:30.613Z,25.88
2018-12-01T04:52:01.734Z,29.20
2018-12-01T04:52:32.872Z,33.15
2018-12-01T04:53:04.039Z,35.70
2018-12-01T04:53:35.159Z,34.40
2018-12-01T04:54:06.300Z,36.35
2018-12-01T04:54:37.452Z,35.95
2018-12-01T04:55:08.578Z,36.73
2018-12-01T04:55:39.688Z,35.73
2018-12-01T04:56:10.820Z,35.88
2018-12-01T04:56:41.933Z,38.17
2018-12-01T04:57:13.053Z,37.80
2018-12-01T04:57:44.220Z,37.63
2018-12-01T04:58:15.327Z,38.20
2018-12-01T04:58:46.448Z,37.88
2018-12-01T04:59:17.563Z,38.10
2018-12-01T04:59:48.688Z,37.45
2018-12-01T05:00:19.857Z,41.05
2018-12-01T05:00:50.978Z,38.48
2018-12-01T05:01:22.095Z,37.55
2018-12-01T05:01:53.228Z,37.58
2018-12-01T05:02:24.349Z,38.60
2018-12-01T05:02:55.504Z,38.90
2018-12-01T05:03:26.613Z,37.83
2018-12-01T05:03:57.723Z,39.48
2018-12-01T05:04:28.838Z,38.75
2018-12-01T05:04:59.952Z,39.80
2018-12-01T05:05:31.110Z,39.40
2018-12-01T05:06:02.233Z,37.95
2018-12-01T05:06:33.356Z,39.10
2018-12-01T05:07:04.468Z,38.70
2018-12-01T05:07:35.573Z,37.63
2018-12-01T05:08:06.700Z,37.90
2018-12-01T05:08:37.857Z,38.98
2018-12-01T05:09:08.981Z,38.90
2018-12-01T05:09:41.357Z,39.55
2018-12-01T05:10:12.478Z,35.73
2018-12-01T05:10:43.644Z,39.20
2018-12-01T05:11:14.760Z,38.48
2018-12-01T05:11:45.880Z,36.75
2018-12-01T05:12:16.992Z,37.23
2018-12-01T05:12:48.118Z,36.03
2018-12-01T05:13:19.283Z,36.65
2018-12-01T05:13:50.556Z,36.28
2018-12-01T05:14:21.711Z,37.55
2018-12-01T05:14:52.821Z,37.60
2018-12-01T05:15:23.936Z,38.25
2018-12-01T05:15:55.044Z,38.58
2018-12-01T05:16:26.161Z,38.33
2018-12-01T05:16:57.275Z,41.02
2018-12-01T05:17:28.390Z,40.45
2018-12-01T05:18:00.790Z,41.68
2018-12-01T05:18:31.930Z,41.70
2018-12-01T05:19:03.049Z,41.02
2018-12-01T05:19:34.214Z,41.50
2018-12-01T05:20:05.327Z,42.10
2018-12-01T05:20:36.487Z,42.62
2018-12-01T05:21:07.608Z,41.92
2018-12-01T05:21:38.716Z,41.25
2018-12-01T05:22:09.898Z,41.50
2018-12-01T05:22:41.078Z,42.48
2018-12-01T05:23:12.204Z,41.60
2018-12-01T05:23:43.312Z,42.00
2018-12-01T05:24:14.437Z,43.90
2018-12-01T05:24:45.605Z,43.58
2018-12-01T05:25:16.729Z,42.20
2018-12-01T05:25:47.853Z,40.98
2018-12-01T05:26:18.960Z,42.85
2018-12-01T05:26:50.854Z,43.50
2018-12-01T05:27:21.965Z,43.33
2018-12-01T05:27:53.100Z,42.05
2018-12-01T05:28:24.220Z,42.85
2018-12-01T05:28:55.329Z,43.42
2018-12-01T05:29:26.444Z,41.37
2018-12-01T05:29:57.593Z,40.28
2018-12-01T05:30:28.717Z,41.58
2018-12-01T05:30:59.917Z,43.48
2018-12-01T05:31:31.049Z,41.35
2018-12-01T05:32:02.165Z,41.37
2018-12-01T05:32:33.283Z,40.70
2018-12-01T05:33:04.401Z,42.45
2018-12-01T05:33:35.518Z,42.90
2018-12-01T05:34:06.632Z,41.10
2018-12-01T05:34:37.758Z,41.98
2018-12-01T05:35:08.882Z,41.75
2018-12-01T05:35:40.248Z,42.00
2018-12-01T05:36:11.365Z,40.83
2018-12-01T05:36:42.484Z,42.23
2018-12-01T05:37:13.607Z,40.40
2018-12-01T05:37:44.717Z,41.77
2018-12-01T05:38:15.841Z,41.95
2018-12-01T05:38:46.951Z,41.45
2018-12-01T05:39:18.061Z,41.42
2018-12-01T05:39:49.178Z,42.98
2018-12-01T05:40:21.297Z,41.10
2018-12-01T05:40:52.444Z,40.73
2018-12-01T05:41:23.567Z,40.12
2018-12-01T05:41:54.684Z,41.70
2018-12-01T05:42:25.835Z,39.83
2018-12-01T05:42:56.977Z,39.38
2018-12-01T05:43:28.116Z,38.80
2018-12-01T05:43:59.233Z,39.53
2018-12-01T05:44:30.425Z,38.73
2018-12-01T05:45:02.270Z,39.67
2018-12-01T05:45:33.392Z,40.58
2018-12-01T05:46:04.558Z,40.08
2018-12-01T05:46:36.816Z,41.10
2018-12-01T05:47:06.832Z,41.70
2018-12-01T05:47:37.945Z,39.00
2018-12-01T05:48:09.081Z,40.28
2018-12-01T05:48:40.290Z,38.85
2018-12-01T05:49:11.414Z,39.98
2018-12-01T05:49:42.595Z,40.35
2018-12-01T05:50:13.735Z,40.40
2018-12-01T05:50:44.897Z,40.43
2018-12-01T05:51:16.985Z,40.38
2018-12-01T05:51:48.107Z,41.48
2018-12-01T05:52:19.277Z,41.73
2018-12-01T05:52:50.408Z,41.77
2018-12-01T05:53:21.535Z,40.67
2018-12-01T05:53:52.744Z,42.15
2018-12-01T05:54:23.882Z,42.03
2018-12-01T05:54:55.014Z,41.92
2018-12-01T05:55:26.136Z,42.00
2018-12-01T05:55:57.248Z,42.95
2018-12-01T05:56:28.363Z,40.80
2018-12-01T05:56:59.491Z,42.13
2018-12-01T05:57:30.619Z,42.08
2018-12-01T05:58:01.745Z,41.50
2018-12-01T05:58:32.876Z,42.03
2018-12-01T05:59:04.033Z,40.38
2018-12-01T05:59:35.187Z,42.38
2018-12-01T06:00:06.333Z,42.70
2018-12-01T06:00:37.453Z,41.30
2018-12-01T06:01:08.613Z,40.35
2018-12-01T06:01:39.733Z,42.00
2018-12-01T06:02:10.868Z,41.37
2018-12-01T06:02:41.984Z,42.03
2018-12-01T06:03:13.117Z,40.90
2018-12-01T06:03:44.238Z,41.95
2018-12-01T06:04:15.357Z,42.43
2018-12-01T06:04:46.469Z,42.70
2018-12-01T06:05:17.580Z,41.85
2018-12-01T06:05:48.696Z,43.35
2018-12-01T06:06:19.851Z,41.50
2018-12-01T06:06:50.962Z,41.08
2018-12-01T06:07:22.077Z,40.90
2018-12-01T06:07:53.208Z,41.98
2018-12-01T06:08:24.338Z,40.35
2018-12-01T06:08:55.460Z,41.37
2018-12-01T06:09:26.624Z,41.35
2018-12-01T06:09:57.742Z,42.43
2018-12-01T06:10:28.867Z,43.10
2018-12-01T06:10:59.979Z,42.62
2018-12-01T06:11:31.133Z,42.58
2018-12-01T06:12:02.241Z,41.98
2018-12-01T06:12:33.364Z,41.90
2018-12-01T06:13:04.527Z,43.23
2018-12-01T06:13:35.654Z,43.58
2018-12-01T06:14:06.772Z,42.20
2018-12-01T06:14:37.888Z,41.92
2018-12-01T06:15:09.036Z,41.50
2018-12-01T06:15:40.146Z,40.92
2018-12-01T06:16:11.378Z,41.77
2018-12-01T06:16:42.510Z,41.05
2018-12-01T06:17:13.637Z,42.83
2018-12-01T06:17:44.765Z,42.23
2018-12-01T06:18:15.884Z,42.53
2018-12-01T06:18:47.001Z,42.80
2018-12-01T06:19:18.117Z,44.13
2018-12-01T06:19:49.238Z,43.28
2018-12-01T06:20:20.340Z,42.75
2018-12-01T06:20:51.518Z,42.20
2018-12-01T06:21:22.641Z,43.38
2018-12-01T06:21:53.764Z,42.58
2018-12-01T06:22:24.883Z,42.00
2018-12-01T06:22:56.026Z,41.98
2018-12-01T06:23:27.152Z,42.23
2018-12-01T06:23:58.268Z,41.23
2018-12-01T06:24:29.383Z,43.08
2018-12-01T06:25:00.508Z,41.20
2018-12-01T06:25:31.678Z,41.18
2018-12-01T06:26:02.838Z,40.80
2018-12-01T06:26:33.952Z,42.50
2018-12-01T06:27:05.061Z,40.98
2018-12-01T06:27:36.177Z,40.05
2018-12-01T06:28:07.300Z,41.30
2018-12-01T06:28:39.468Z,42.03
2018-12-01T06:29:10.595Z,42.65
2018-12-01T06:29:41.715Z,43.80
2018-12-01T06:30:12.837Z,41.53
2018-12-01T06:30:43.985Z,41.92
2018-12-01T06:31:15.110Z,43.13
2018-12-01T06:31:46.266Z,43.08
2018-12-01T06:32:17.381Z,41.98
2018-12-01T06:32:48.488Z,43.17
2018-12-01T06:33:19.605Z,41.68
2018-12-01T06:33:50.728Z,41.55
2018-12-01T06:34:21.895Z,43.52
2018-12-01T06:34:53.009Z,44.40
2018-12-01T06:35:24.132Z,42.70
2018-12-01T06:35:55.244Z,43.40
2018-12-01T06:36:26.386Z,42.00
2018-12-01T06:36:57.502Z,39.48
2018-12-01T06:37:28.613Z,39.53
2018-12-01T06:37:59.774Z,43.10
2018-12-01T06:38:30.883Z,40.78
2018-12-01T06:39:01.985Z,41.73
2018-12-01T06:39:33.101Z,38.95
2018-12-01T06:40:04.217Z,40.28
2018-12-01T06:40:35.363Z,39.60
2018-12-01T06:41:06.472Z,39.03